sensor_id;sensor_type;location;lat;lon;timestamp;P1;durP1;ratioP1;P2;durP2;ratioP2
8572;SDS011;4324;42.012;24.872;2024-02-21T00:01:28;35.97;;;28.27;;
8572;SDS011;4324;42.012;24.872;2024-02-21T00:03:54;34.70;;;26.33;;
8572;SDS011;4324;42.012;24.872;2024-02-21T00:06:21;32.43;;;26.03;;
8572;SDS011;4324;42.012;24.872;2024-02-21T00:08:48;32.33;;;25.53;;
8572;SDS011;4324;42.012;24.872;2024-02-21T00:11:17;27.47;;;22.53;;
8572;SDS011;4324;42.012;24.872;2024-02-21T00:13:44;24.87;;;20.67;;
8572;SDS011;4324;42.012;24.872;2024-02-21T00:16:10;21.27;;;17.70;;
8572;SDS011;4324;42.012;24.872;2024-02-21T00:18:38;18.60;;;15.00;;
8572;SDS011;4324;42.012;24.872;2024-02-21T00:21:05;15.77;;;13.90;;
8572;SDS011;4324;42.012;24.872;2024-02-21T00:23:32;15.83;;;13.63;;
8572;SDS011;4324;42.012;24.872;2024-02-21T00:25:59;16.07;;;13.23;;
8572;SDS011;4324;42.012;24.872;2024-02-21T00:28:27;14.33;;;12.83;;
8572;SDS011;4324;42.012;24.872;2024-02-21T00:30:54;17.17;;;12.93;;
8572;SDS011;4324;42.012;24.872;2024-02-21T00:33:21;15.37;;;13.23;;
8572;SDS011;4324;42.012;24.872;2024-02-21T00:35:48;15.20;;;13.47;;
8572;SDS011;4324;42.012;24.872;2024-02-21T00:38:15;19.10;;;14.47;;
8572;SDS011;4324;42.012;24.872;2024-02-21T00:40:42;17.10;;;14.80;;
8572;SDS011;4324;42.012;24.872;2024-02-21T00:43:09;16.63;;;14.20;;
8572;SDS011;4324;42.012;24.872;2024-02-21T00:45:38;16.30;;;14.03;;
8572;SDS011;4324;42.012;24.872;2024-02-21T00:48:05;17.90;;;14.80;;
8572;SDS011;4324;42.012;24.872;2024-02-21T00:50:32;17.30;;;14.77;;
8572;SDS011;4324;42.012;24.872;2024-02-21T00:52:59;17.27;;;13.77;;
8572;SDS011;4324;42.012;24.872;2024-02-21T00:55:26;16.47;;;14.07;;
8572;SDS011;4324;42.012;24.872;2024-02-21T00:57:53;19.80;;;15.47;;
8572;SDS011;4324;42.012;24.872;2024-02-21T01:00:20;17.80;;;15.90;;
8572;SDS011;4324;42.012;24.872;2024-02-21T01:02:48;20.67;;;17.07;;
8572;SDS011;4324;42.012;24.872;2024-02-21T01:05:15;23.27;;;18.23;;
8572;SDS011;4324;42.012;24.872;2024-02-21T01:07:42;22.90;;;17.97;;
8572;SDS011;4324;42.012;24.872;2024-02-21T01:10:09;24.30;;;19.57;;
8572;SDS011;4324;42.012;24.872;2024-02-21T01:12:36;24.07;;;19.63;;
8572;SDS011;4324;42.012;24.872;2024-02-21T01:15:03;23.57;;;19.70;;
8572;SDS011;4324;42.012;24.872;2024-02-21T01:17:31;22.27;;;18.30;;
8572;SDS011;4324;42.012;24.872;2024-02-21T01:19:59;16.60;;;14.10;;
8572;SDS011;4324;42.012;24.872;2024-02-21T01:22:26;18.30;;;14.03;;
8572;SDS011;4324;42.012;24.872;2024-02-21T01:24:53;15.77;;;13.33;;
8572;SDS011;4324;42.012;24.872;2024-02-21T01:27:20;15.60;;;13.27;;
8572;SDS011;4324;42.012;24.872;2024-02-21T01:29:47;15.20;;;12.97;;
8572;SDS011;4324;42.012;24.872;2024-02-21T01:32:15;16.00;;;13.80;;
8572;SDS011;4324;42.012;24.872;2024-02-21T01:34:41;16.67;;;13.67;;
8572;SDS011;4324;42.012;24.872;2024-02-21T01:37:10;17.90;;;13.73;;
8572;SDS011;4324;42.012;24.872;2024-02-21T01:39:36;16.83;;;12.77;;
8572;SDS011;4324;42.012;24.872;2024-02-21T01:42:04;14.87;;;13.20;;
8572;SDS011;4324;42.012;24.872;2024-02-21T01:44:31;17.10;;;12.93;;
8572;SDS011;4324;42.012;24.872;2024-02-21T01:46:58;15.20;;;12.83;;
8572;SDS011;4324;42.012;24.872;2024-02-21T01:49:25;15.67;;;13.97;;
8572;SDS011;4324;42.012;24.872;2024-02-21T01:51:52;15.47;;;12.30;;
8572;SDS011;4324;42.012;24.872;2024-02-21T01:54:22;15.23;;;12.37;;
8572;SDS011;4324;42.012;24.872;2024-02-21T01:56:49;15.10;;;13.40;;
8572;SDS011;4324;42.012;24.872;2024-02-21T01:59:16;15.23;;;13.63;;
8572;SDS011;4324;42.012;24.872;2024-02-21T02:01:45;15.47;;;13.77;;
8572;SDS011;4324;42.012;24.872;2024-02-21T02:04:13;15.40;;;13.30;;
8572;SDS011;4324;42.012;24.872;2024-02-21T02:06:40;14.40;;;12.23;;
8572;SDS011;4324;42.012;24.872;2024-02-21T02:09:07;15.70;;;13.33;;
8572;SDS011;4324;42.012;24.872;2024-02-21T02:11:35;14.73;;;12.57;;
8572;SDS011;4324;42.012;24.872;2024-02-21T02:14:03;14.40;;;12.60;;
8572;SDS011;4324;42.012;24.872;2024-02-21T02:16:30;14.70;;;12.53;;
8572;SDS011;4324;42.012;24.872;2024-02-21T02:18:56;15.60;;;12.60;;
8572;SDS011;4324;42.012;24.872;2024-02-21T02:21:26;14.17;;;12.20;;
8572;SDS011;4324;42.012;24.872;2024-02-21T02:23:56;14.30;;;12.43;;
8572;SDS011;4324;42.012;24.872;2024-02-21T02:26:23;14.20;;;12.50;;
8572;SDS011;4324;42.012;24.872;2024-02-21T02:28:50;13.77;;;12.37;;
8572;SDS011;4324;42.012;24.872;2024-02-21T02:31:17;14.43;;;11.83;;
8572;SDS011;4324;42.012;24.872;2024-02-21T02:33:44;14.97;;;12.10;;
8572;SDS011;4324;42.012;24.872;2024-02-21T02:36:11;14.07;;;11.60;;
8572;SDS011;4324;42.012;24.872;2024-02-21T02:38:38;13.60;;;12.20;;
8572;SDS011;4324;42.012;24.872;2024-02-21T02:41:06;14.00;;;12.07;;
8572;SDS011;4324;42.012;24.872;2024-02-21T02:43:33;14.70;;;12.23;;
8572;SDS011;4324;42.012;24.872;2024-02-21T02:46:02;14.43;;;12.20;;
8572;SDS011;4324;42.012;24.872;2024-02-21T02:48:29;14.80;;;12.30;;
8572;SDS011;4324;42.012;24.872;2024-02-21T02:50:56;13.60;;;12.17;;
8572;SDS011;4324;42.012;24.872;2024-02-21T02:53:26;15.10;;;12.60;;
8572;SDS011;4324;42.012;24.872;2024-02-21T02:55:52;14.90;;;12.23;;
8572;SDS011;4324;42.012;24.872;2024-02-21T02:58:21;14.83;;;12.53;;
8572;SDS011;4324;42.012;24.872;2024-02-21T03:00:48;13.30;;;11.90;;
8572;SDS011;4324;42.012;24.872;2024-02-21T03:03:15;14.47;;;12.07;;
8572;SDS011;4324;42.012;24.872;2024-02-21T03:05:42;15.20;;;12.73;;
8572;SDS011;4324;42.012;24.872;2024-02-21T03:08:09;15.30;;;13.43;;
8572;SDS011;4324;42.012;24.872;2024-02-21T03:10:36;15.67;;;13.67;;
8572;SDS011;4324;42.012;24.872;2024-02-21T03:13:03;15.80;;;13.03;;
8572;SDS011;4324;42.012;24.872;2024-02-21T03:15:31;16.03;;;12.80;;
8572;SDS011;4324;42.012;24.872;2024-02-21T03:17:59;14.33;;;12.53;;
8572;SDS011;4324;42.012;24.872;2024-02-21T03:20:25;15.10;;;12.83;;
8572;SDS011;4324;42.012;24.872;2024-02-21T03:22:53;14.43;;;12.80;;
8572;SDS011;4324;42.012;24.872;2024-02-21T03:25:43;13.97;;;12.37;;
8572;SDS011;4324;42.012;24.872;2024-02-21T03:28:20;14.20;;;12.30;;
8572;SDS011;4324;42.012;24.872;2024-02-21T03:31:15;14.50;;;12.20;;
8572;SDS011;4324;42.012;24.872;2024-02-21T03:33:42;14.40;;;12.40;;
8572;SDS011;4324;42.012;24.872;2024-02-21T03:36:12;15.87;;;13.30;;
8572;SDS011;4324;42.012;24.872;2024-02-21T03:38:40;15.23;;;13.27;;
8572;SDS011;4324;42.012;24.872;2024-02-21T03:41:07;16.20;;;13.67;;
8572;SDS011;4324;42.012;24.872;2024-02-21T03:43:33;14.80;;;12.97;;
8572;SDS011;4324;42.012;24.872;2024-02-21T03:46:00;14.33;;;12.67;;
8572;SDS011;4324;42.012;24.872;2024-02-21T03:48:29;14.40;;;12.33;;
8572;SDS011;4324;42.012;24.872;2024-02-21T03:50:55;14.63;;;12.60;;
8572;SDS011;4324;42.012;24.872;2024-02-21T03:53:22;15.57;;;12.17;;
8572;SDS011;4324;42.012;24.872;2024-02-21T03:55:51;14.17;;;12.43;;
8572;SDS011;4324;42.012;24.872;2024-02-21T03:58:28;14.53;;;12.30;;
8572;SDS011;4324;42.012;24.872;2024-02-21T04:01:16;13.20;;;11.80;;
8572;SDS011;4324;42.012;24.872;2024-02-21T04:03:44;13.10;;;11.67;;
8572;SDS011;4324;42.012;24.872;2024-02-21T04:06:11;14.20;;;12.20;;
8572;SDS011;4324;42.012;24.872;2024-02-21T04:08:38;13.10;;;11.43;;
8572;SDS011;4324;42.012;24.872;2024-02-21T04:11:05;14.87;;;12.93;;
8572;SDS011;4324;42.012;24.872;2024-02-21T04:13:32;14.60;;;12.83;;
8572;SDS011;4324;42.012;24.872;2024-02-21T04:15:59;17.20;;;12.40;;
8572;SDS011;4324;42.012;24.872;2024-02-21T04:18:26;14.30;;;11.90;;
8572;SDS011;4324;42.012;24.872;2024-02-21T04:20:54;15.43;;;13.07;;
8572;SDS011;4324;42.012;24.872;2024-02-21T04:23:21;17.07;;;13.90;;
8572;SDS011;4324;42.012;24.872;2024-02-21T04:25:48;19.80;;;16.43;;
8572;SDS011;4324;42.012;24.872;2024-02-21T04:28:15;14.73;;;13.13;;
8572;SDS011;4324;42.012;24.872;2024-02-21T04:30:42;16.10;;;13.43;;
8572;SDS011;4324;42.012;24.872;2024-02-21T04:33:09;15.80;;;13.20;;
8572;SDS011;4324;42.012;24.872;2024-02-21T04:35:36;13.30;;;11.90;;
8572;SDS011;4324;42.012;24.872;2024-02-21T04:38:04;14.60;;;12.93;;
8572;SDS011;4324;42.012;24.872;2024-02-21T04:40:31;14.50;;;12.60;;
8572;SDS011;4324;42.012;24.872;2024-02-21T04:42:59;17.80;;;14.50;;
8572;SDS011;4324;42.012;24.872;2024-02-21T04:45:26;15.30;;;13.47;;
8572;SDS011;4324;42.012;24.872;2024-02-21T04:47:53;15.53;;;12.60;;
8572;SDS011;4324;42.012;24.872;2024-02-21T04:50:20;16.30;;;13.63;;
8572;SDS011;4324;42.012;24.872;2024-02-21T04:52:47;15.83;;;12.67;;
8572;SDS011;4324;42.012;24.872;2024-02-21T04:55:15;17.20;;;13.03;;
8572;SDS011;4324;42.012;24.872;2024-02-21T04:57:42;15.67;;;12.63;;
8572;SDS011;4324;42.012;24.872;2024-02-21T05:00:09;13.80;;;12.27;;
8572;SDS011;4324;42.012;24.872;2024-02-21T05:02:37;14.73;;;12.87;;
8572;SDS011;4324;42.012;24.872;2024-02-21T05:05:04;16.93;;;13.70;;
8572;SDS011;4324;42.012;24.872;2024-02-21T05:07:31;15.73;;;13.70;;
8572;SDS011;4324;42.012;24.872;2024-02-21T05:09:58;19.10;;;15.57;;
8572;SDS011;4324;42.012;24.872;2024-02-21T05:12:27;18.13;;;14.27;;
8572;SDS011;4324;42.012;24.872;2024-02-21T05:14:55;14.70;;;12.73;;
8572;SDS011;4324;42.012;24.872;2024-02-21T05:17:31;14.57;;;13.07;;
8572;SDS011;4324;42.012;24.872;2024-02-21T05:20:11;17.70;;;14.80;;
8572;SDS011;4324;42.012;24.872;2024-02-21T05:22:57;25.70;;;16.30;;
8572;SDS011;4324;42.012;24.872;2024-02-21T05:25:33;19.23;;;14.33;;
8572;SDS011;4324;42.012;24.872;2024-02-21T05:28:01;15.40;;;12.80;;
8572;SDS011;4324;42.012;24.872;2024-02-21T05:30:31;14.13;;;12.47;;
8572;SDS011;4324;42.012;24.872;2024-02-21T05:32:58;15.13;;;12.53;;
8572;SDS011;4324;42.012;24.872;2024-02-21T05:35:25;15.50;;;12.73;;
8572;SDS011;4324;42.012;24.872;2024-02-21T05:37:53;15.97;;;12.20;;
8572;SDS011;4324;42.012;24.872;2024-02-21T05:40:20;14.70;;;12.77;;
8572;SDS011;4324;42.012;24.872;2024-02-21T05:42:48;15.03;;;12.30;;
8572;SDS011;4324;42.012;24.872;2024-02-21T05:45:17;14.57;;;12.90;;
8572;SDS011;4324;42.012;24.872;2024-02-21T05:47:46;15.37;;;12.90;;
8572;SDS011;4324;42.012;24.872;2024-02-21T05:50:13;15.30;;;12.53;;
8572;SDS011;4324;42.012;24.872;2024-02-21T05:52:44;14.60;;;13.10;;
8572;SDS011;4324;42.012;24.872;2024-02-21T05:55:11;13.73;;;12.17;;
8572;SDS011;4324;42.012;24.872;2024-02-21T05:57:38;16.33;;;14.70;;
8572;SDS011;4324;42.012;24.872;2024-02-21T06:00:05;15.60;;;13.10;;
8572;SDS011;4324;42.012;24.872;2024-02-21T06:02:34;17.33;;;13.07;;
8572;SDS011;4324;42.012;24.872;2024-02-21T06:05:01;18.50;;;16.50;;
8572;SDS011;4324;42.012;24.872;2024-02-21T06:07:28;20.33;;;18.07;;
8572;SDS011;4324;42.012;24.872;2024-02-21T06:09:55;18.90;;;16.13;;
8572;SDS011;4324;42.012;24.872;2024-02-21T06:12:22;19.57;;;16.97;;
8572;SDS011;4324;42.012;24.872;2024-02-21T06:14:50;16.20;;;13.73;;
8572;SDS011;4324;42.012;24.872;2024-02-21T06:17:18;16.83;;;13.03;;
8572;SDS011;4324;42.012;24.872;2024-02-21T06:19:46;15.87;;;14.00;;
8572;SDS011;4324;42.012;24.872;2024-02-21T06:22:13;15.50;;;13.33;;
8572;SDS011;4324;42.012;24.872;2024-02-21T06:24:48;15.63;;;13.20;;
8572;SDS011;4324;42.012;24.872;2024-02-21T06:27:15;15.90;;;14.17;;
8572;SDS011;4324;42.012;24.872;2024-02-21T06:29:42;20.27;;;16.13;;
8572;SDS011;4324;42.012;24.872;2024-02-21T06:32:09;16.93;;;14.40;;
8572;SDS011;4324;42.012;24.872;2024-02-21T06:34:36;15.80;;;13.03;;
8572;SDS011;4324;42.012;24.872;2024-02-21T06:37:05;17.10;;;13.50;;
8572;SDS011;4324;42.012;24.872;2024-02-21T06:39:32;13.43;;;12.03;;
8572;SDS011;4324;42.012;24.872;2024-02-21T06:41:58;15.07;;;13.43;;
8572;SDS011;4324;42.012;24.872;2024-02-21T06:44:25;17.13;;;14.17;;
8572;SDS011;4324;42.012;24.872;2024-02-21T06:46:53;16.47;;;14.20;;
8572;SDS011;4324;42.012;24.872;2024-02-21T06:49:35;17.27;;;13.73;;
8572;SDS011;4324;42.012;24.872;2024-02-21T06:52:18;20.83;;;15.67;;
8572;SDS011;4324;42.012;24.872;2024-02-21T06:54:46;20.57;;;13.60;;
8572;SDS011;4324;42.012;24.872;2024-02-21T06:57:13;17.30;;;13.33;;
8572;SDS011;4324;42.012;24.872;2024-02-21T06:59:40;17.27;;;13.10;;
8572;SDS011;4324;42.012;24.872;2024-02-21T07:02:10;15.87;;;12.60;;
8572;SDS011;4324;42.012;24.872;2024-02-21T07:04:44;14.03;;;12.33;;
8572;SDS011;4324;42.012;24.872;2024-02-21T07:07:14;15.00;;;13.40;;
8572;SDS011;4324;42.012;24.872;2024-02-21T07:09:43;16.63;;;13.67;;
8572;SDS011;4324;42.012;24.872;2024-02-21T07:12:10;16.93;;;13.63;;
8572;SDS011;4324;42.012;24.872;2024-02-21T07:14:37;16.83;;;13.93;;
8572;SDS011;4324;42.012;24.872;2024-02-21T07:17:04;13.63;;;12.23;;
8572;SDS011;4324;42.012;24.872;2024-02-21T07:19:31;20.90;;;14.83;;
8572;SDS011;4324;42.012;24.872;2024-02-21T07:21:58;18.27;;;13.93;;
8572;SDS011;4324;42.012;24.872;2024-02-21T07:24:25;16.37;;;13.30;;
8572;SDS011;4324;42.012;24.872;2024-02-21T07:26:56;14.83;;;13.20;;
8572;SDS011;4324;42.012;24.872;2024-02-21T07:29:30;14.97;;;12.43;;
8572;SDS011;4324;42.012;24.872;2024-02-21T07:31:58;12.47;;;10.77;;
8572;SDS011;4324;42.012;24.872;2024-02-21T07:34:24;16.97;;;14.43;;
8572;SDS011;4324;42.012;24.872;2024-02-21T07:36:51;27.33;;;21.70;;
8572;SDS011;4324;42.012;24.872;2024-02-21T07:39:18;17.13;;;14.40;;
8572;SDS011;4324;42.012;24.872;2024-02-21T07:41:45;18.70;;;14.60;;
8572;SDS011;4324;42.012;24.872;2024-02-21T07:44:15;14.40;;;12.37;;
8572;SDS011;4324;42.012;24.872;2024-02-21T07:46:42;14.37;;;11.87;;
8572;SDS011;4324;42.012;24.872;2024-02-21T07:49:09;15.00;;;12.50;;
8572;SDS011;4324;42.012;24.872;2024-02-21T07:51:45;16.47;;;13.13;;
8572;SDS011;4324;42.012;24.872;2024-02-21T07:54:15;17.70;;;12.60;;
8572;SDS011;4324;42.012;24.872;2024-02-21T07:56:42;12.83;;;11.43;;
8572;SDS011;4324;42.012;24.872;2024-02-21T07:59:09;14.33;;;12.03;;
8572;SDS011;4324;42.012;24.872;2024-02-21T08:01:37;18.93;;;12.20;;
8572;SDS011;4324;42.012;24.872;2024-02-21T08:04:05;17.33;;;14.10;;
8572;SDS011;4324;42.012;24.872;2024-02-21T08:06:45;18.30;;;13.20;;
8572;SDS011;4324;42.012;24.872;2024-02-21T08:09:18;17.77;;;12.80;;
8572;SDS011;4324;42.012;24.872;2024-02-21T08:11:54;16.50;;;11.97;;
8572;SDS011;4324;42.012;24.872;2024-02-21T08:14:33;16.63;;;14.27;;
8572;SDS011;4324;42.012;24.872;2024-02-21T08:17:13;19.57;;;13.83;;
8572;SDS011;4324;42.012;24.872;2024-02-21T08:19:42;14.37;;;12.60;;
8572;SDS011;4324;42.012;24.872;2024-02-21T08:22:14;17.87;;;13.70;;
8572;SDS011;4324;42.012;24.872;2024-02-21T08:24:42;20.93;;;13.97;;
8572;SDS011;4324;42.012;24.872;2024-02-21T08:27:13;13.50;;;12.10;;
8572;SDS011;4324;42.012;24.872;2024-02-21T08:29:50;13.20;;;11.10;;
8572;SDS011;4324;42.012;24.872;2024-02-21T08:35:21;12.90;;;11.57;;
8572;SDS011;4324;42.012;24.872;2024-02-21T08:38:00;16.67;;;13.33;;
8572;SDS011;4324;42.012;24.872;2024-02-21T08:40:27;16.23;;;12.97;;
8572;SDS011;4324;42.012;24.872;2024-02-21T08:42:59;16.60;;;13.03;;
8572;SDS011;4324;42.012;24.872;2024-02-21T08:45:30;18.87;;;15.40;;
8572;SDS011;4324;42.012;24.872;2024-02-21T08:47:59;17.03;;;14.70;;
8572;SDS011;4324;42.012;24.872;2024-02-21T08:50:26;22.70;;;17.53;;
8572;SDS011;4324;42.012;24.872;2024-02-21T08:52:53;27.03;;;18.93;;
8572;SDS011;4324;42.012;24.872;2024-02-21T08:55:20;22.17;;;17.27;;
8572;SDS011;4324;42.012;24.872;2024-02-21T08:57:50;21.40;;;14.47;;
8572;SDS011;4324;42.012;24.872;2024-02-21T09:00:17;18.53;;;16.30;;
8572;SDS011;4324;42.012;24.872;2024-02-21T09:02:49;16.40;;;14.47;;
8572;SDS011;4324;42.012;24.872;2024-02-21T09:05:17;18.03;;;14.23;;
8572;SDS011;4324;42.012;24.872;2024-02-21T09:07:45;15.40;;;13.03;;
8572;SDS011;4324;42.012;24.872;2024-02-21T09:10:14;19.73;;;15.70;;
8572;SDS011;4324;42.012;24.872;2024-02-21T09:12:41;17.23;;;15.27;;
8572;SDS011;4324;42.012;24.872;2024-02-21T09:15:09;17.87;;;15.70;;
8572;SDS011;4324;42.012;24.872;2024-02-21T09:17:36;18.87;;;16.87;;
8572;SDS011;4324;42.012;24.872;2024-02-21T09:20:05;22.13;;;16.63;;
8572;SDS011;4324;42.012;24.872;2024-02-21T09:22:34;20.83;;;15.93;;
8572;SDS011;4324;42.012;24.872;2024-02-21T09:25:02;17.07;;;14.33;;
8572;SDS011;4324;42.012;24.872;2024-02-21T09:27:30;20.47;;;16.17;;
8572;SDS011;4324;42.012;24.872;2024-02-21T09:29:57;20.17;;;15.80;;
8572;SDS011;4324;42.012;24.872;2024-02-21T09:32:24;18.40;;;16.27;;
8572;SDS011;4324;42.012;24.872;2024-02-21T09:34:52;16.73;;;15.03;;
8572;SDS011;4324;42.012;24.872;2024-02-21T09:37:19;17.73;;;15.20;;
8572;SDS011;4324;42.012;24.872;2024-02-21T09:39:48;15.47;;;13.77;;
8572;SDS011;4324;42.012;24.872;2024-02-21T09:42:15;15.67;;;14.07;;
8572;SDS011;4324;42.012;24.872;2024-02-21T09:44:47;16.83;;;14.40;;
8572;SDS011;4324;42.012;24.872;2024-02-21T09:47:16;10.87;;;9.50;;
8572;SDS011;4324;42.012;24.872;2024-02-21T09:49:57;9.47;;;8.53;;
8572;SDS011;4324;42.012;24.872;2024-02-21T09:52:34;8.17;;;7.43;;
8572;SDS011;4324;42.012;24.872;2024-02-21T09:55:07;8.10;;;7.27;;
8572;SDS011;4324;42.012;24.872;2024-02-21T09:57:37;10.50;;;9.50;;
8572;SDS011;4324;42.012;24.872;2024-02-21T10:00:11;8.63;;;7.73;;
8572;SDS011;4324;42.012;24.872;2024-02-21T10:02:50;7.87;;;7.07;;
8572;SDS011;4324;42.012;24.872;2024-02-21T10:05:17;7.20;;;6.43;;
8572;SDS011;4324;42.012;24.872;2024-02-21T10:07:58;7.00;;;6.30;;
8572;SDS011;4324;42.012;24.872;2024-02-21T10:13:30;8.27;;;7.40;;
8572;SDS011;4324;42.012;24.872;2024-02-21T10:16:18;9.40;;;8.30;;
8572;SDS011;4324;42.012;24.872;2024-02-21T10:19:15;8.87;;;8.07;;
8572;SDS011;4324;42.012;24.872;2024-02-21T10:22:05;7.83;;;7.13;;
8572;SDS011;4324;42.012;24.872;2024-02-21T10:25:23;7.20;;;6.50;;
8572;SDS011;4324;42.012;24.872;2024-02-21T10:27:46;8.67;;;7.30;;
8572;SDS011;4324;42.012;24.872;2024-02-21T10:30:16;7.00;;;6.30;;
8572;SDS011;4324;42.012;24.872;2024-02-21T10:32:53;6.80;;;6.10;;
8572;SDS011;4324;42.012;24.872;2024-02-21T10:35:27;7.00;;;6.30;;
8572;SDS011;4324;42.012;24.872;2024-02-21T10:37:55;7.43;;;6.73;;
8572;SDS011;4324;42.012;24.872;2024-02-21T10:40:26;7.50;;;6.80;;
8572;SDS011;4324;42.012;24.872;2024-02-21T10:42:57;7.40;;;6.70;;
8572;SDS011;4324;42.012;24.872;2024-02-21T10:45:29;6.70;;;6.00;;
8572;SDS011;4324;42.012;24.872;2024-02-21T10:48:00;8.57;;;7.20;;
8572;SDS011;4324;42.012;24.872;2024-02-21T10:50:32;7.67;;;6.87;;
8572;SDS011;4324;42.012;24.872;2024-02-21T10:53:18;8.43;;;7.53;;
8572;SDS011;4324;42.012;24.872;2024-02-21T10:56:04;9.43;;;7.13;;
8572;SDS011;4324;42.012;24.872;2024-02-21T10:59:09;8.03;;;6.77;;
8572;SDS011;4324;42.012;24.872;2024-02-21T11:01:36;6.97;;;6.27;;
8572;SDS011;4324;42.012;24.872;2024-02-21T11:04:04;9.80;;;7.03;;
8572;SDS011;4324;42.012;24.872;2024-02-21T11:09:50;9.13;;;6.80;;
8572;SDS011;4324;42.012;24.872;2024-02-21T11:12:24;7.57;;;6.30;;
8572;SDS011;4324;42.012;24.872;2024-02-21T11:15:04;7.87;;;7.00;;
8572;SDS011;4324;42.012;24.872;2024-02-21T11:17:32;6.47;;;5.77;;
8572;SDS011;4324;42.012;24.872;2024-02-21T11:19:59;8.87;;;7.97;;
8572;SDS011;4324;42.012;24.872;2024-02-21T11:22:42;7.30;;;6.60;;
8572;SDS011;4324;42.012;24.872;2024-02-21T11:25:09;6.97;;;6.10;;
8572;SDS011;4324;42.012;24.872;2024-02-21T11:27:37;10.20;;;8.77;;
8572;SDS011;4324;42.012;24.872;2024-02-21T11:30:06;7.37;;;6.67;;
8572;SDS011;4324;42.012;24.872;2024-02-21T11:32:39;6.40;;;5.80;;
8572;SDS011;4324;42.012;24.872;2024-02-21T11:35:07;6.67;;;5.80;;
8572;SDS011;4324;42.012;24.872;2024-02-21T11:37:35;9.83;;;7.93;;
8572;SDS011;4324;42.012;24.872;2024-02-21T11:40:03;6.67;;;6.07;;
8572;SDS011;4324;42.012;24.872;2024-02-21T11:42:34;9.20;;;8.07;;
8572;SDS011;4324;42.012;24.872;2024-02-21T11:45:06;6.70;;;6.10;;
8572;SDS011;4324;42.012;24.872;2024-02-21T11:47:35;5.87;;;5.27;;
8572;SDS011;4324;42.012;24.872;2024-02-21T11:50:04;6.43;;;5.10;;
8572;SDS011;4324;42.012;24.872;2024-02-21T11:52:32;5.77;;;5.20;;
8572;SDS011;4324;42.012;24.872;2024-02-21T11:54:59;6.43;;;5.10;;
8572;SDS011;4324;42.012;24.872;2024-02-21T11:57:36;6.20;;;5.53;;
8572;SDS011;4324;42.012;24.872;2024-02-21T12:00:17;5.80;;;5.30;;
8572;SDS011;4324;42.012;24.872;2024-02-21T12:02:46;5.00;;;4.50;;
8572;SDS011;4324;42.012;24.872;2024-02-21T12:05:13;4.83;;;4.40;;
8572;SDS011;4324;42.012;24.872;2024-02-21T12:07:41;5.30;;;4.13;;
8572;SDS011;4324;42.012;24.872;2024-02-21T12:10:08;4.13;;;3.83;;
8572;SDS011;4324;42.012;24.872;2024-02-21T12:12:36;4.83;;;4.33;;
8572;SDS011;4324;42.012;24.872;2024-02-21T12:15:04;4.27;;;3.87;;
8572;SDS011;4324;42.012;24.872;2024-02-21T12:17:35;4.83;;;4.17;;
8572;SDS011;4324;42.012;24.872;2024-02-21T12:20:38;9.17;;;6.80;;
8572;SDS011;4324;42.012;24.872;2024-02-21T12:23:26;7.73;;;5.37;;
8572;SDS011;4324;42.012;24.872;2024-02-21T12:25:53;6.23;;;5.23;;
8572;SDS011;4324;42.012;24.872;2024-02-21T12:28:20;5.43;;;4.93;;
8572;SDS011;4324;42.012;24.872;2024-02-21T12:30:48;5.70;;;5.10;;
8572;SDS011;4324;42.012;24.872;2024-02-21T12:33:16;5.83;;;4.97;;
8572;SDS011;4324;42.012;24.872;2024-02-21T12:35:43;5.27;;;4.87;;
8572;SDS011;4324;42.012;24.872;2024-02-21T12:38:10;5.00;;;4.60;;
8572;SDS011;4324;42.012;24.872;2024-02-21T12:40:38;4.70;;;4.30;;
8572;SDS011;4324;42.012;24.872;2024-02-21T12:43:05;5.50;;;4.97;;
8572;SDS011;4324;42.012;24.872;2024-02-21T12:45:33;5.17;;;4.57;;
8572;SDS011;4324;42.012;24.872;2024-02-21T12:48:00;5.10;;;4.60;;
8572;SDS011;4324;42.012;24.872;2024-02-21T12:50:28;6.70;;;5.53;;
8572;SDS011;4324;42.012;24.872;2024-02-21T12:52:56;6.70;;;5.93;;
8572;SDS011;4324;42.012;24.872;2024-02-21T12:55:24;7.03;;;6.30;;
8572;SDS011;4324;42.012;24.872;2024-02-21T12:57:51;7.97;;;6.57;;
8572;SDS011;4324;42.012;24.872;2024-02-21T13:00:18;5.17;;;4.67;;
8572;SDS011;4324;42.012;24.872;2024-02-21T13:02:46;7.10;;;6.43;;
8572;SDS011;4324;42.012;24.872;2024-02-21T13:05:13;6.27;;;5.53;;
8572;SDS011;4324;42.012;24.872;2024-02-21T13:07:41;6.47;;;5.30;;
8572;SDS011;4324;42.012;24.872;2024-02-21T13:10:08;6.80;;;5.40;;
8572;SDS011;4324;42.012;24.872;2024-02-21T13:12:35;7.03;;;5.80;;
8572;SDS011;4324;42.012;24.872;2024-02-21T13:15:04;7.43;;;6.30;;
8572;SDS011;4324;42.012;24.872;2024-02-21T13:17:31;8.47;;;6.70;;
8572;SDS011;4324;42.012;24.872;2024-02-21T13:19:58;9.33;;;8.37;;
8572;SDS011;4324;42.012;24.872;2024-02-21T13:22:25;11.03;;;7.50;;
8572;SDS011;4324;42.012;24.872;2024-02-21T13:24:54;10.93;;;9.83;;
8572;SDS011;4324;42.012;24.872;2024-02-21T13:27:20;10.00;;;9.03;;
8572;SDS011;4324;42.012;24.872;2024-02-21T13:29:47;13.43;;;12.03;;
8572;SDS011;4324;42.012;24.872;2024-02-21T13:32:14;9.53;;;8.13;;
8572;SDS011;4324;42.012;24.872;2024-02-21T13:34:42;6.47;;;5.87;;
8572;SDS011;4324;42.012;24.872;2024-02-21T13:37:09;6.37;;;5.40;;
8572;SDS011;4324;42.012;24.872;2024-02-21T13:39:36;6.30;;;5.70;;
8572;SDS011;4324;42.012;24.872;2024-02-21T13:42:05;8.63;;;7.27;;
8572;SDS011;4324;42.012;24.872;2024-02-21T13:44:32;5.93;;;5.43;;
8572;SDS011;4324;42.012;24.872;2024-02-21T13:46:59;6.17;;;5.57;;
8572;SDS011;4324;42.012;24.872;2024-02-21T13:49:26;7.10;;;6.40;;
8572;SDS011;4324;42.012;24.872;2024-02-21T13:51:54;11.40;;;10.33;;
8572;SDS011;4324;42.012;24.872;2024-02-21T13:54:21;8.70;;;7.70;;
8572;SDS011;4324;42.012;24.872;2024-02-21T13:56:48;7.53;;;6.87;;
8572;SDS011;4324;42.012;24.872;2024-02-21T13:59:19;12.40;;;11.20;;
8572;SDS011;4324;42.012;24.872;2024-02-21T14:01:46;10.60;;;9.37;;
8572;SDS011;4324;42.012;24.872;2024-02-21T14:04:13;11.60;;;9.40;;
8572;SDS011;4324;42.012;24.872;2024-02-21T14:07:27;10.53;;;8.57;;
8572;SDS011;4324;42.012;24.872;2024-02-21T14:09:54;11.03;;;9.93;;
8572;SDS011;4324;42.012;24.872;2024-02-21T14:12:30;10.87;;;8.87;;
8572;SDS011;4324;42.012;24.872;2024-02-21T14:14:59;6.53;;;5.93;;
8572;SDS011;4324;42.012;24.872;2024-02-21T14:17:27;8.77;;;7.27;;
8572;SDS011;4324;42.012;24.872;2024-02-21T14:19:54;7.37;;;6.67;;
8572;SDS011;4324;42.012;24.872;2024-02-21T14:22:24;11.87;;;9.43;;
8572;SDS011;4324;42.012;24.872;2024-02-21T14:24:51;11.20;;;9.03;;
8572;SDS011;4324;42.012;24.872;2024-02-21T14:27:18;9.60;;;8.47;;
8572;SDS011;4324;42.012;24.872;2024-02-21T14:29:44;11.37;;;9.80;;
8572;SDS011;4324;42.012;24.872;2024-02-21T14:32:13;11.63;;;10.43;;
8572;SDS011;4324;42.012;24.872;2024-02-21T14:34:40;11.10;;;10.00;;
8572;SDS011;4324;42.012;24.872;2024-02-21T14:37:07;12.80;;;9.87;;
8572;SDS011;4324;42.012;24.872;2024-02-21T14:39:34;10.47;;;9.43;;
8572;SDS011;4324;42.012;24.872;2024-02-21T14:42:01;10.13;;;9.13;;
8572;SDS011;4324;42.012;24.872;2024-02-21T14:44:28;10.00;;;9.00;;
8572;SDS011;4324;42.012;24.872;2024-02-21T14:46:55;10.27;;;7.90;;
8572;SDS011;4324;42.012;24.872;2024-02-21T14:49:23;10.03;;;7.40;;
8572;SDS011;4324;42.012;24.872;2024-02-21T14:51:51;8.70;;;7.87;;
8572;SDS011;4324;42.012;24.872;2024-02-21T14:54:18;8.47;;;7.67;;
8572;SDS011;4324;42.012;24.872;2024-02-21T14:56:51;10.40;;;8.00;;
8572;SDS011;4324;42.012;24.872;2024-02-21T14:59:21;8.87;;;8.03;;
8572;SDS011;4324;42.012;24.872;2024-02-21T15:01:48;9.67;;;8.73;;
8572;SDS011;4324;42.012;24.872;2024-02-21T15:04:16;9.70;;;7.40;;
8572;SDS011;4324;42.012;24.872;2024-02-21T15:06:45;11.13;;;8.07;;